WetterOnline ( https://www.wetteronline.de )

Wetter aktuell Bad Wurzach

Aktuelles Wetter: Leutkirch-Herlazhofen (671m)

6-stündlich | Neueste Meldungen
Ortszeit Temperatur Wetter
Di, 06.12. 1:00 0.0° C bewölkt
Mo, 05.12. 19:00 -0.1° C bedeckt
Mo, 05.12. 13:00 1.8° C Sprühregen
Mo, 05.12. 7:00 2.4° C bedeckt
Mo, 05.12. 1:00 0.2° C Nebel
So, 04.12. 19:00 0.4° C bedeckt
So, 04.12. 13:00 0.1° C bedeckt
So, 04.12. 7:00 -0.2° C bedeckt
Ortszeit Temperatur Wetter
Di, 06.12. 5:00 -0.4° C leicht bewölkt
Di, 06.12. 4:50 -0.4° C leicht bewölkt
Di, 06.12. 4:40 -0.5° C leicht bewölkt
Di, 06.12. 4:30 -0.2° C wolkig
Di, 06.12. 4:20 -0.2° C wolkig
Di, 06.12. 4:10 -0.1° C bewölkt
Di, 06.12. 4:00 -0.3° C bedeckt
Di, 06.12. 3:30 -0.8° C bewölkt
Di, 06.12. 3:00 -1.2° C wolkig
Di, 06.12. 2:30 -0.8° C wolkig
Di, 06.12. 2:00 -0.3° C bewölkt
Ortszeit Relative Feuchte Sichtweite
Di, 06.12. 1:00 95% 26 km
Mo, 05.12. 19:00 99% 14 km
Mo, 05.12. 13:00 94% 55 km
Mo, 05.12. 7:00 93% 27 km
Mo, 05.12. 1:00 100% 0.5 km
So, 04.12. 19:00 97% 4.7 km
So, 04.12. 13:00 96% 7 km
So, 04.12. 7:00 96% 9 km
Ortszeit Relative Feuchte Sichtweite
Di, 06.12. 5:00 97% 15 km
Di, 06.12. 4:50 97% -
Di, 06.12. 4:40 97% -
Di, 06.12. 4:30 95% 24 km
Di, 06.12. 4:20 95% -
Di, 06.12. 4:10 96% -
Di, 06.12. 4:00 96% 22 km
Di, 06.12. 3:30 97% 19 km
Di, 06.12. 3:00 97% 16 km
Di, 06.12. 2:30 96% 17 km
Di, 06.12. 2:00 96% 21 km
Ortszeit Niederschlagsmenge Niederschlagsart
Di, 06.12. 1:00 0.1 l/m2 in 6 Std. Regen
Mo, 05.12. 19:00 0.5 l/m2 in 12 Std. Regen
Mo, 05.12. 13:00 0.5 l/m2 in 6 Std. Regen
Mo, 05.12. 7:00 0.1 l/m2 in 12 Std. -
Mo, 05.12. 1:00 0.1 l/m2 in 6 Std. Sprühregen
So, 04.12. 19:00 0.1 l/m2 in 12 Std. -
So, 04.12. 13:00 0.1 l/m2 in 6 Std. Niederschlag
So, 04.12. 7:00 0.0 l/m2 in 12 Std. -
Ortszeit Niederschlagsmenge Niederschlagsart
Di, 06.12. 5:00 0.0 l/m2 in 1 Std. -
Di, 06.12. 4:50 keine Meldung -
Di, 06.12. 4:40 keine Meldung -
Di, 06.12. 4:30 0.0 l/m2 in 30 Min -
Di, 06.12. 4:20 keine Meldung -
Di, 06.12. 4:10 keine Meldung -
Di, 06.12. 4:00 0.0 l/m2 in 1 Std. -
Di, 06.12. 3:30 0.0 l/m2 in 30 Min -
Di, 06.12. 3:00 0.0 l/m2 in 1 Std. -
Di, 06.12. 2:30 0.0 l/m2 in 30 Min -
Di, 06.12. 2:00 0.0 l/m2 in 1 Std. -
Ortszeit Stärke Spitze Richtung
km/h Bft. km/h Grad Sektor
Di, 06.12. 1:00 7 2 18 220° SW
Mo, 05.12. 19:00 4 1 25 150° SO
Mo, 05.12. 13:00 20 4 30 180° S
Mo, 05.12. 7:00 13 3 31 170° S
Mo, 05.12. 1:00 9 2 20 230° SW
So, 04.12. 19:00 4 1 18 230° SW
So, 04.12. 13:00 4 1 14 320° NW
So, 04.12. 7:00 9 2 19 50° NO
Ortszeit Stärke Spitze Richtung
km/h Bft. km/h Grad Sektor
Di, 06.12. 5:00 4 1 14 70° O
Di, 06.12. 4:50 4 1 - 70° O
Di, 06.12. 4:40 4 1 - 30° NO
Di, 06.12. 4:30 11 2 14 170° S
Di, 06.12. 4:20 11 2 - 170° S
Di, 06.12. 4:10 6 1 - 170° S
Di, 06.12. 4:00 7 2 9 180° S
Di, 06.12. 3:30 4 1 7 180° S
Di, 06.12. 3:00 7 2 7 200° S
Di, 06.12. 2:30 6 1 7 180° S
Di, 06.12. 2:00 7 2 11 180° S
Ortszeit Untergrenze Bedeckung Gattung
total tief tief mittel hoch
Di, 06.12. 1:00 1110 m 7/8 7/8 - - -
Mo, 05.12. 19:00 540 m 8/8 8/8 - - -
Mo, 05.12. 13:00 1050 m 7/8 7/8 - - -
Mo, 05.12. 7:00 1350 m 8/8 8/8 - - -
Mo, 05.12. 1:00 30 m 8/8 8/8 - - -
So, 04.12. 19:00 120 m 8/8 8/8 - - -
So, 04.12. 13:00 60 m 8/8 8/8 - - -
So, 04.12. 7:00 90 m 8/8 8/8 - - -
Ortszeit Bedeckungsgrad in Achtel und Wolkenuntergrenze
Di, 06.12. 5:00 3(390m)
Di, 06.12. 4:50 3(390m)
Di, 06.12. 4:40 2
Di, 06.12. 4:30 5(390m)
Di, 06.12. 4:20 5(390m)
Di, 06.12. 4:10 7
Di, 06.12. 4:00 8(450m)
Di, 06.12. 3:30 7(480m)
Di, 06.12. 3:00 5(450m) 6(780m)
Di, 06.12. 2:30 4(360m) 5(780m)
Di, 06.12. 2:00 1(360m) 7(840m)
Ortszeit Luftdruck NN (hPa) Tendenz (hPa in 3 Std.)
Di, 06.12. 1:00 1022 - 0,4
Mo, 05.12. 19:00 1022 + 0,8
Mo, 05.12. 13:00 1021 - 0,2
Mo, 05.12. 7:00 1019 + 0,5
Mo, 05.12. 1:00 1016 + 0,8
So, 04.12. 19:00 1014 + 0,3
So, 04.12. 13:00 1013 - 1,0
So, 04.12. 7:00 1014 0,0
Ortszeit Luftdruck NN (hPa) Tendenz (hPa in 3 Std.)
Di, 06.12. 5:00 1021 - 1,0
Di, 06.12. 4:50 1021 keine Meldung
Di, 06.12. 4:40 1021 keine Meldung
Di, 06.12. 4:30 1021 - 0,8
Di, 06.12. 4:20 1021 keine Meldung
Di, 06.12. 4:10 1021 keine Meldung
Di, 06.12. 4:00 1021 - 0,5
Di, 06.12. 3:30 1022 - 0,4
Di, 06.12. 3:00 1022 - 0,5
Di, 06.12. 2:30 1022 - 0,5
Di, 06.12. 2:00 1022 - 0,3
Ortszeit Schneehöhe (cm)
Di, 06.12. 1:00 0
Mo, 05.12. 19:00 0
Mo, 05.12. 13:00 0
Mo, 05.12. 7:00 0
Mo, 05.12. 1:00 0
So, 04.12. 19:00 0
So, 04.12. 13:00 0
So, 04.12. 7:00 0
Ortszeit Schneehöhe (cm)
Di, 06.12. 5:00 0
Di, 06.12. 4:50 0
Di, 06.12. 4:40 0
Di, 06.12. 4:30 0
Di, 06.12. 4:20 0
Di, 06.12. 4:10 0
Di, 06.12. 4:00 0
Di, 06.12. 3:30 0
Di, 06.12. 3:00 0
Di, 06.12. 2:30 0
Di, 06.12. 2:00 0
Link zu dieser Seite / Seite empfehlen

Das Wetter in ...